Portada
METAR-TAF:

METAR-TAF

Aeroports :

Jubail, Aràbia Saudita

latitud: 27-02-20N, longitud: 49-24-18E, altitud: 8 m

Observació

L'informe es va fer fa 5 hores i 4 minuts, a les 21:00 UTC
Vent 3 kt del Sud/Sud-Oest
Temperatura 15°C
Humitat 94%
Pressió 1019 hPa
Visibilitat: 7000 m

METAR: OEJB 222100Z AUTO 20003KT 7000 NCD 15/14 Q1019 NOSIG

Hora: 05:04 (02:04 UTC)


TAF: manca

Observacions i pronòstics meteorològics de més de 4000 aeroports (METAR i TAF).

Les estacions disponibles són els punts grocs i vermells al mapa.

Posi el ratolí al punt desitjat per veure el nom de l'estació.

Feu clic per veure les observacions i els pronòstics meteorològics.

Per canviar el mapa: feu clic els botons verds amb una creu de color negre per apropar; al botó verd amb un guió per allunyar la imatge; o en les fletxes verdes per a mapes adjacents.


METAR-TAF: